sensor_id;sensor_type;location;lat;lon;timestamp;pressure;altitude;pressure_sealevel;temperature;humidity
4410;BME280;2218;51.408;7.208;2023-06-10T00:00:41;99669.91;;;24.54;46.84
4410;BME280;2218;51.408;7.208;2023-06-10T00:03:08;99667.25;;;24.54;46.49
4410;BME280;2218;51.408;7.208;2023-06-10T00:05:36;99669.09;;;24.53;46.77
4410;BME280;2218;51.408;7.208;2023-06-10T00:08:05;99667.41;;;24.52;46.59
4410;BME280;2218;51.408;7.208;2023-06-10T00:10:33;99669.09;;;24.53;46.57
4410;BME280;2218;51.408;7.208;2023-06-10T00:13:01;99671.91;;;24.52;46.68
4410;BME280;2218;51.408;7.208;2023-06-10T00:15:28;99669.25;;;24.52;46.79
4410;BME280;2218;51.408;7.208;2023-06-10T00:17:55;99668.38;;;24.51;46.79
4410;BME280;2218;51.408;7.208;2023-06-10T00:20:22;99681.66;;;24.51;46.62
4410;BME280;2218;51.408;7.208;2023-06-10T00:22:52;99670.19;;;24.50;46.38
4410;BME280;2218;51.408;7.208;2023-06-10T00:25:19;99670.19;;;24.50;46.81
4410;BME280;2218;51.408;7.208;2023-06-10T00:27:46;99668.53;;;24.49;47.00
4410;BME280;2218;51.408;7.208;2023-06-10T00:30:13;99665.88;;;24.49;46.77
4410;BME280;2218;51.408;7.208;2023-06-10T00:32:40;99665.88;;;24.49;46.86
4410;BME280;2218;51.408;7.208;2023-06-10T00:35:07;99663.22;;;24.49;46.84
4410;BME280;2218;51.408;7.208;2023-06-10T00:37:34;99669.50;;;24.48;46.62
4410;BME280;2218;51.408;7.208;2023-06-10T00:40:04;99669.50;;;24.48;46.73
4410;BME280;2218;51.408;7.208;2023-06-10T00:42:32;99670.50;;;24.47;46.66
4410;BME280;2218;51.408;7.208;2023-06-10T00:44:58;99667.84;;;24.47;46.75
4410;BME280;2218;51.408;7.208;2023-06-10T00:47:27;99666.13;;;24.46;47.05
4410;BME280;2218;51.408;7.208;2023-06-10T00:49:54;99668.78;;;24.46;46.64
4410;BME280;2218;51.408;7.208;2023-06-10T00:52:28;99672.31;;;24.47;46.63
4410;BME280;2218;51.408;7.208;2023-06-10T00:54:56;99678.59;;;24.46;47.00
4410;BME280;2218;51.408;7.208;2023-06-10T00:57:24;99676.06;;;24.44;47.01
4410;BME280;2218;51.408;7.208;2023-06-10T00:59:52;99681.38;;;24.44;46.87
4410;BME280;2218;51.408;7.208;2023-06-10T01:02:19;99676.06;;;24.44;46.82
4410;BME280;2218;51.408;7.208;2023-06-10T01:04:46;99676.06;;;24.44;46.91
4410;BME280;2218;51.408;7.208;2023-06-10T01:07:23;99677.06;;;24.43;46.95
4410;BME280;2218;51.408;7.208;2023-06-10T01:10:01;99672.72;;;24.42;46.87
4410;BME280;2218;51.408;7.208;2023-06-10T01:12:37;99666.59;;;24.42;46.93
4410;BME280;2218;51.408;7.208;2023-06-10T01:15:08;99676.34;;;24.41;47.18
4410;BME280;2218;51.408;7.208;2023-06-10T01:17:54;99676.34;;;24.41;47.14
4410;BME280;2218;51.408;7.208;2023-06-10T01:20:23;99674.66;;;24.40;46.86
4410;BME280;2218;51.408;7.208;2023-06-10T01:22:54;99682.63;;;24.40;47.27
4410;BME280;2218;51.408;7.208;2023-06-10T01:25:21;99678.16;;;24.41;46.98
4410;BME280;2218;51.408;7.208;2023-06-10T01:28:02;99673.84;;;24.40;47.31
4410;BME280;2218;51.408;7.208;2023-06-10T01:30:39;99675.66;;;24.39;47.05
4410;BME280;2218;51.408;7.208;2023-06-10T01:33:12;99681.97;;;24.38;46.95
4410;BME280;2218;51.408;7.208;2023-06-10T01:35:43;99684.63;;;24.38;47.42
4410;BME280;2218;51.408;7.208;2023-06-10T01:38:14;99687.28;;;24.38;47.09
4410;BME280;2218;51.408;7.208;2023-06-10T01:40:42;99688.25;;;24.37;47.41
4410;BME280;2218;51.408;7.208;2023-06-10T01:43:10;99690.06;;;24.37;47.07
4410;BME280;2218;51.408;7.208;2023-06-10T01:45:36;99682.94;;;24.37;47.08
4410;BME280;2218;51.408;7.208;2023-06-10T01:48:04;99682.19;;;24.35;47.46
4410;BME280;2218;51.408;7.208;2023-06-10T01:50:31;99687.50;;;24.35;47.26
4410;BME280;2218;51.408;7.208;2023-06-10T01:53:00;99681.34;;;24.35;47.11
4410;BME280;2218;51.408;7.208;2023-06-10T01:55:28;99685.84;;;24.34;47.08
4410;BME280;2218;51.408;7.208;2023-06-10T01:57:55;99681.34;;;24.35;47.17
4410;BME280;2218;51.408;7.208;2023-06-10T02:00:22;99677.19;;;24.32;46.91
4410;BME280;2218;51.408;7.208;2023-06-10T02:02:49;99689.47;;;24.33;47.26
4410;BME280;2218;51.408;7.208;2023-06-10T02:05:16;99680.66;;;24.33;47.25
4410;BME280;2218;51.408;7.208;2023-06-10T02:07:43;99685.16;;;24.32;47.26
4410;BME280;2218;51.408;7.208;2023-06-10T02:10:10;99686.09;;;24.31;47.25
4410;BME280;2218;51.408;7.208;2023-06-10T02:12:38;99686.09;;;24.31;46.95
4410;BME280;2218;51.408;7.208;2023-06-10T02:15:05;99676.47;;;24.30;47.12
4410;BME280;2218;51.408;7.208;2023-06-10T02:17:32;99681.78;;;24.30;47.46
4410;BME280;2218;51.408;7.208;2023-06-10T02:19:59;99679.25;;;24.29;47.22
4410;BME280;2218;51.408;7.208;2023-06-10T02:22:34;99682.75;;;24.29;47.47
4410;BME280;2218;51.408;7.208;2023-06-10T02:25:01;99683.59;;;24.30;47.52
4410;BME280;2218;51.408;7.208;2023-06-10T02:27:27;99686.41;;;24.28;47.35
4410;BME280;2218;51.408;7.208;2023-06-10T02:29:57;99694.38;;;24.28;47.39
4410;BME280;2218;51.408;7.208;2023-06-10T02:32:24;99691.72;;;24.28;47.57
4410;BME280;2218;51.408;7.208;2023-06-10T02:34:52;99691.00;;;24.26;47.22
4410;BME280;2218;51.408;7.208;2023-06-10T02:37:22;99682.19;;;24.25;47.22
4410;BME280;2218;51.408;7.208;2023-06-10T02:39:48;99684.84;;;24.25;47.39
4410;BME280;2218;51.408;7.208;2023-06-10T02:42:15;99690.16;;;24.25;47.36
4410;BME280;2218;51.408;7.208;2023-06-10T02:44:43;99687.50;;;24.25;47.40
4410;BME280;2218;51.408;7.208;2023-06-10T02:47:16;99686.66;;;24.25;47.35
4410;BME280;2218;51.408;7.208;2023-06-10T02:49:43;99688.47;;;24.24;47.27
4410;BME280;2218;51.408;7.208;2023-06-10T02:52:11;99690.31;;;24.24;47.50
4410;BME280;2218;51.408;7.208;2023-06-10T02:54:38;99686.81;;;24.23;47.42
4410;BME280;2218;51.408;7.208;2023-06-10T02:57:07;99693.09;;;24.22;47.47
4410;BME280;2218;51.408;7.208;2023-06-10T02:59:36;99688.63;;;24.23;47.34
4410;BME280;2218;51.408;7.208;2023-06-10T03:02:04;99692.28;;;24.22;47.42
4410;BME280;2218;51.408;7.208;2023-06-10T03:04:39;99686.97;;;24.22;47.67
4410;BME280;2218;51.408;7.208;2023-06-10T03:07:11;99685.25;;;24.21;47.41
4410;BME280;2218;51.408;7.208;2023-06-10T03:09:38;99684.41;;;24.20;47.21
4410;BME280;2218;51.408;7.208;2023-06-10T03:12:10;99685.25;;;24.21;47.25
4410;BME280;2218;51.408;7.208;2023-06-10T03:14:42;99688.91;;;24.20;47.38
4410;BME280;2218;51.408;7.208;2023-06-10T03:17:09;99689.72;;;24.20;47.52
4410;BME280;2218;51.408;7.208;2023-06-10T03:19:41;99694.22;;;24.20;47.58
4410;BME280;2218;51.408;7.208;2023-06-10T03:22:10;99687.91;;;24.21;47.41
4410;BME280;2218;51.408;7.208;2023-06-10T03:24:58;99686.25;;;24.20;47.56
4410;BME280;2218;51.408;7.208;2023-06-10T03:27:26;99686.25;;;24.20;47.23
4410;BME280;2218;51.408;7.208;2023-06-10T03:29:56;99686.25;;;24.20;47.42
4410;BME280;2218;51.408;7.208;2023-06-10T03:32:23;99690.56;;;24.21;47.51
4410;BME280;2218;51.408;7.208;2023-06-10T03:34:52;99691.56;;;24.20;47.51
4410;BME280;2218;51.408;7.208;2023-06-10T03:37:24;99687.22;;;24.19;47.66
4410;BME280;2218;51.408;7.208;2023-06-10T03:39:51;99699.50;;;24.20;47.30
4410;BME280;2218;51.408;7.208;2023-06-10T03:42:18;99696.72;;;24.21;47.61
4410;BME280;2218;51.408;7.208;2023-06-10T03:44:45;99699.50;;;24.20;47.92
4410;BME280;2218;51.408;7.208;2023-06-10T03:47:12;99700.34;;;24.20;47.58
4410;BME280;2218;51.408;7.208;2023-06-10T03:49:39;99701.34;;;24.19;47.66
4410;BME280;2218;51.408;7.208;2023-06-10T03:52:08;99708.19;;;24.22;47.84
4410;BME280;2218;51.408;7.208;2023-06-10T03:54:35;99705.53;;;24.22;47.58
4410;BME280;2218;51.408;7.208;2023-06-10T03:57:03;99711.81;;;24.21;47.65
4410;BME280;2218;51.408;7.208;2023-06-10T03:59:31;99706.50;;;24.21;47.82
4410;BME280;2218;51.408;7.208;2023-06-10T04:01:58;99711.81;;;24.21;47.51
4410;BME280;2218;51.408;7.208;2023-06-10T04:04:26;99704.84;;;24.20;47.46
4410;BME280;2218;51.408;7.208;2023-06-10T04:06:52;99709.03;;;24.22;47.63
4410;BME280;2218;51.408;7.208;2023-06-10T04:09:21;99704.56;;;24.23;47.31
4410;BME280;2218;51.408;7.208;2023-06-10T04:11:48;99702.75;;;24.23;47.65
4410;BME280;2218;51.408;7.208;2023-06-10T04:14:15;99712.53;;;24.23;47.50
4410;BME280;2218;51.408;7.208;2023-06-10T04:16:43;99714.34;;;24.22;47.79
4410;BME280;2218;51.408;7.208;2023-06-10T04:19:11;99714.34;;;24.22;47.82
4410;BME280;2218;51.408;7.208;2023-06-10T04:21:38;99723.00;;;24.24;47.60
4410;BME280;2218;51.408;7.208;2023-06-10T04:24:05;99716.03;;;24.23;47.71
4410;BME280;2218;51.408;7.208;2023-06-10T04:26:35;99724.81;;;24.24;47.61
4410;BME280;2218;51.408;7.208;2023-06-10T04:29:03;99719.38;;;24.25;47.66
4410;BME280;2218;51.408;7.208;2023-06-10T04:31:30;99721.91;;;24.27;47.65
4410;BME280;2218;51.408;7.208;2023-06-10T04:33:59;99725.25;;;24.29;47.66
4410;BME280;2218;51.408;7.208;2023-06-10T04:36:28;99727.91;;;24.29;47.58
4410;BME280;2218;51.408;7.208;2023-06-10T04:38:55;99729.56;;;24.30;47.72
4410;BME280;2218;51.408;7.208;2023-06-10T04:41:22;99726.91;;;24.30;47.54
4410;BME280;2218;51.408;7.208;2023-06-10T04:43:51;99726.91;;;24.30;47.50
4410;BME280;2218;51.408;7.208;2023-06-10T04:46:19;99730.28;;;24.32;47.67
4410;BME280;2218;51.408;7.208;2023-06-10T04:48:46;99725.81;;;24.33;47.51
4410;BME280;2218;51.408;7.208;2023-06-10T04:51:13;99725.56;;;24.36;47.92
4410;BME280;2218;51.408;7.208;2023-06-10T04:53:40;99730.34;;;24.42;47.30
4410;BME280;2218;51.408;7.208;2023-06-10T04:56:07;99721.66;;;24.49;47.28
4410;BME280;2218;51.408;7.208;2023-06-10T04:58:34;99726.81;;;24.61;46.90
4410;BME280;2218;51.408;7.208;2023-06-10T05:01:03;99725.97;;;24.70;46.50
4410;BME280;2218;51.408;7.208;2023-06-10T05:03:29;99722.47;;;24.79;46.20
4410;BME280;2218;51.408;7.208;2023-06-10T05:05:56;99730.59;;;24.87;46.23
4410;BME280;2218;51.408;7.208;2023-06-10T05:08:23;99724.44;;;24.96;46.31
4410;BME280;2218;51.408;7.208;2023-06-10T05:10:50;99723.53;;;25.06;46.22
4410;BME280;2218;51.408;7.208;2023-06-10T05:13:17;99714.06;;;25.13;46.20
4410;BME280;2218;51.408;7.208;2023-06-10T05:15:44;99726.50;;;25.22;46.22
4410;BME280;2218;51.408;7.208;2023-06-10T05:18:13;99714.28;;;25.29;45.78
4410;BME280;2218;51.408;7.208;2023-06-10T05:20:40;99725.16;;;25.36;45.72
4410;BME280;2218;51.408;7.208;2023-06-10T05:23:07;99727.41;;;25.40;45.40
4410;BME280;2218;51.408;7.208;2023-06-10T05:25:34;99725.97;;;25.46;45.44
4410;BME280;2218;51.408;7.208;2023-06-10T05:28:01;99726.25;;;25.52;45.39
4410;BME280;2218;51.408;7.208;2023-06-10T05:30:28;99721.31;;;25.58;45.24
4410;BME280;2218;51.408;7.208;2023-06-10T05:32:55;99728.72;;;25.64;45.08
4410;BME280;2218;51.408;7.208;2023-06-10T05:35:24;99731.31;;;25.73;45.07
4410;BME280;2218;51.408;7.208;2023-06-10T05:37:51;99722.94;;;25.78;45.31
4410;BME280;2218;51.408;7.208;2023-06-10T05:40:18;99724.16;;;25.84;45.09
4410;BME280;2218;51.408;7.208;2023-06-10T05:42:45;99726.91;;;25.92;45.10
4410;BME280;2218;51.408;7.208;2023-06-10T05:45:12;99732.63;;;25.97;44.45
4410;BME280;2218;51.408;7.208;2023-06-10T05:47:39;99733.88;;;26.02;44.28
4410;BME280;2218;51.408;7.208;2023-06-10T05:50:07;99731.59;;;26.08;44.55
4410;BME280;2218;51.408;7.208;2023-06-10T05:52:36;99734.63;;;26.13;44.42
4410;BME280;2218;51.408;7.208;2023-06-10T05:55:06;99732.34;;;26.18;44.47
4410;BME280;2218;51.408;7.208;2023-06-10T05:57:34;99742.41;;;26.24;44.82
4410;BME280;2218;51.408;7.208;2023-06-10T06:00:01;99740.97;;;26.29;44.31
4410;BME280;2218;51.408;7.208;2023-06-10T06:02:27;99733.69;;;26.32;44.48
4410;BME280;2218;51.408;7.208;2023-06-10T06:04:54;99733.06;;;26.38;44.43
4410;BME280;2218;51.408;7.208;2023-06-10T06:07:22;99738.94;;;26.41;44.18
4410;BME280;2218;51.408;7.208;2023-06-10T06:09:50;99734.97;;;26.45;44.27
4410;BME280;2218;51.408;7.208;2023-06-10T06:12:17;99734.69;;;26.48;44.00
4410;BME280;2218;51.408;7.208;2023-06-10T06:14:44;99739.72;;;26.51;44.22
4410;BME280;2218;51.408;7.208;2023-06-10T06:17:11;99744.59;;;26.56;44.08
4410;BME280;2218;51.408;7.208;2023-06-10T06:19:38;99742.44;;;26.60;44.24
4410;BME280;2218;51.408;7.208;2023-06-10T06:22:05;99739.31;;;26.64;44.05
4410;BME280;2218;51.408;7.208;2023-06-10T06:24:32;99741.84;;;26.66;43.63
4410;BME280;2218;51.408;7.208;2023-06-10T06:27:00;99733.53;;;26.69;43.65
4410;BME280;2218;51.408;7.208;2023-06-10T06:29:27;99734.91;;;26.73;44.00
4410;BME280;2218;51.408;7.208;2023-06-10T06:31:55;99733.91;;;26.74;43.70
4410;BME280;2218;51.408;7.208;2023-06-10T06:34:22;99733.59;;;26.77;43.38
4410;BME280;2218;51.408;7.208;2023-06-10T06:36:49;99731.63;;;26.79;43.22
4410;BME280;2218;51.408;7.208;2023-06-10T06:39:17;99735.94;;;26.80;43.67
4410;BME280;2218;51.408;7.208;2023-06-10T06:41:44;99746.31;;;26.83;43.05
4410;BME280;2218;51.408;7.208;2023-06-10T06:44:13;99746.31;;;26.83;43.93
4410;BME280;2218;51.408;7.208;2023-06-10T06:46:43;99739.16;;;26.84;43.72
4410;BME280;2218;51.408;7.208;2023-06-10T06:49:10;99742.66;;;26.84;43.84
4410;BME280;2218;51.408;7.208;2023-06-10T06:51:37;99748.81;;;26.85;43.19
4410;BME280;2218;51.408;7.208;2023-06-10T06:54:04;99750.34;;;26.87;43.34
4410;BME280;2218;51.408;7.208;2023-06-10T06:56:31;99754.03;;;26.86;42.97
4410;BME280;2218;51.408;7.208;2023-06-10T06:58:58;99755.69;;;26.87;43.12
4410;BME280;2218;51.408;7.208;2023-06-10T07:01:26;99754.03;;;26.86;43.92
4410;BME280;2218;51.408;7.208;2023-06-10T07:03:53;99750.34;;;26.87;43.54
4410;BME280;2218;51.408;7.208;2023-06-10T07:06:20;99756.34;;;26.89;43.48
4410;BME280;2218;51.408;7.208;2023-06-10T07:08:49;99756.53;;;26.88;43.05
4410;BME280;2218;51.408;7.208;2023-06-10T07:11:17;99759.03;;;26.89;43.40
4410;BME280;2218;51.408;7.208;2023-06-10T07:13:44;99759.84;;;26.90;43.83
4410;BME280;2218;51.408;7.208;2023-06-10T07:16:11;99755.34;;;26.90;43.51
4410;BME280;2218;51.408;7.208;2023-06-10T07:18:39;99754.53;;;26.90;43.32
4410;BME280;2218;51.408;7.208;2023-06-10T07:21:06;99756.22;;;26.91;44.09
4410;BME280;2218;51.408;7.208;2023-06-10T07:23:33;99754.53;;;26.90;43.26
4410;BME280;2218;51.408;7.208;2023-06-10T07:26:00;99757.06;;;26.91;43.83
4410;BME280;2218;51.408;7.208;2023-06-10T07:28:27;99762.38;;;26.91;43.87
4410;BME280;2218;51.408;7.208;2023-06-10T07:30:54;99752.69;;;26.90;43.61
4410;BME280;2218;51.408;7.208;2023-06-10T07:33:21;99753.69;;;26.89;43.91
4410;BME280;2218;51.408;7.208;2023-06-10T07:35:49;99751.03;;;26.89;43.92
4410;BME280;2218;51.408;7.208;2023-06-10T07:38:17;99757.34;;;26.88;43.18
4410;BME280;2218;51.408;7.208;2023-06-10T07:40:44;99746.03;;;26.86;43.92
4410;BME280;2218;51.408;7.208;2023-06-10T07:43:11;99748.69;;;26.86;43.64
4410;BME280;2218;51.408;7.208;2023-06-10T07:45:39;99749.66;;;26.85;44.17
4410;BME280;2218;51.408;7.208;2023-06-10T07:48:07;99752.31;;;26.85;43.92
4410;BME280;2218;51.408;7.208;2023-06-10T07:50:34;99748.97;;;26.83;43.87
4410;BME280;2218;51.408;7.208;2023-06-10T07:53:02;99747.31;;;26.82;43.87
4410;BME280;2218;51.408;7.208;2023-06-10T07:55:29;99749.28;;;26.80;43.89
4410;BME280;2218;51.408;7.208;2023-06-10T07:57:56;99752.81;;;26.80;44.19
4410;BME280;2218;51.408;7.208;2023-06-10T08:00:23;99753.94;;;26.78;43.80
4410;BME280;2218;51.408;7.208;2023-06-10T08:02:50;99754.09;;;26.76;43.26
4410;BME280;2218;51.408;7.208;2023-06-10T08:05:17;99753.28;;;26.76;43.84
4410;BME280;2218;51.408;7.208;2023-06-10T08:07:45;99756.91;;;26.75;44.17
4410;BME280;2218;51.408;7.208;2023-06-10T08:10:13;99755.22;;;26.74;43.43
4410;BME280;2218;51.408;7.208;2023-06-10T08:12:40;99756.22;;;26.73;43.68
4410;BME280;2218;51.408;7.208;2023-06-10T08:15:08;99766.22;;;26.71;43.77
4410;BME280;2218;51.408;7.208;2023-06-10T08:17:35;99767.19;;;26.70;43.99
4410;BME280;2218;51.408;7.208;2023-06-10T08:20:05;99763.84;;;26.68;43.88
4410;BME280;2218;51.408;7.208;2023-06-10T08:22:32;99760.34;;;26.67;43.55
4410;BME280;2218;51.408;7.208;2023-06-10T08:24:59;99765.84;;;26.66;44.14
4410;BME280;2218;51.408;7.208;2023-06-10T08:27:27;99766.97;;;26.63;44.08
4410;BME280;2218;51.408;7.208;2023-06-10T08:29:54;99765.31;;;26.62;44.17
4410;BME280;2218;51.408;7.208;2023-06-10T08:32:21;99764.47;;;26.62;44.37
4410;BME280;2218;51.408;7.208;2023-06-10T08:34:48;99770.09;;;26.59;44.24
4410;BME280;2218;51.408;7.208;2023-06-10T08:37:15;99765.75;;;26.58;44.42
4410;BME280;2218;51.408;7.208;2023-06-10T08:39:42;99771.25;;;26.56;44.04
4410;BME280;2218;51.408;7.208;2023-06-10T08:42:21;99766.88;;;26.55;44.37
4410;BME280;2218;51.408;7.208;2023-06-10T08:44:53;99771.38;;;26.54;44.49
4410;BME280;2218;51.408;7.208;2023-06-10T08:47:24;99768.88;;;26.53;44.69
4410;BME280;2218;51.408;7.208;2023-06-10T08:49:54;99777.03;;;26.51;44.77
4410;BME280;2218;51.408;7.208;2023-06-10T08:52:23;99770.00;;;26.50;44.37
4410;BME280;2218;51.408;7.208;2023-06-10T08:54:59;99773.66;;;26.49;44.49
4410;BME280;2218;51.408;7.208;2023-06-10T08:57:27;99782.66;;;26.48;44.08
4410;BME280;2218;51.408;7.208;2023-06-10T08:59:57;99775.66;;;26.47;44.60
4410;BME280;2218;51.408;7.208;2023-06-10T09:02:25;99763.34;;;26.46;44.73
4410;BME280;2218;51.408;7.208;2023-06-10T09:04:56;99765.28;;;26.44;44.81
4410;BME280;2218;51.408;7.208;2023-06-10T09:07:23;99764.47;;;26.44;44.21
4410;BME280;2218;51.408;7.208;2023-06-10T09:09:52;99762.78;;;26.43;44.37
4410;BME280;2218;51.408;7.208;2023-06-10T09:12:20;99769.94;;;26.42;44.27
4410;BME280;2218;51.408;7.208;2023-06-10T09:14:47;99765.59;;;26.41;43.51
4410;BME280;2218;51.408;7.208;2023-06-10T09:17:16;99768.25;;;26.41;44.85
4410;BME280;2218;51.408;7.208;2023-06-10T09:19:44;99753.22;;;26.40;44.05
4410;BME280;2218;51.408;7.208;2023-06-10T09:22:13;99753.38;;;26.39;44.58
4410;BME280;2218;51.408;7.208;2023-06-10T09:24:41;99751.56;;;26.39;44.37
4410;BME280;2218;51.408;7.208;2023-06-10T09:27:08;99747.22;;;26.38;44.41
4410;BME280;2218;51.408;7.208;2023-06-10T09:29:46;99758.16;;;26.35;44.25
4410;BME280;2218;51.408;7.208;2023-06-10T09:32:17;99760.84;;;26.35;44.28
4410;BME280;2218;51.408;7.208;2023-06-10T09:34:45;99766.16;;;26.35;44.36
4410;BME280;2218;51.408;7.208;2023-06-10T09:37:12;99768.81;;;26.35;44.01
4410;BME280;2218;51.408;7.208;2023-06-10T09:39:40;99757.50;;;26.33;44.00
4410;BME280;2218;51.408;7.208;2023-06-10T09:42:16;99766.16;;;26.35;44.75
4410;BME280;2218;51.408;7.208;2023-06-10T09:44:50;99762.81;;;26.33;44.31
4410;BME280;2218;51.408;7.208;2023-06-10T09:47:22;99761.16;;;26.32;44.60
4410;BME280;2218;51.408;7.208;2023-06-10T09:49:50;99756.81;;;26.31;44.23
4410;BME280;2218;51.408;7.208;2023-06-10T09:52:22;99758.63;;;26.30;44.02
4410;BME280;2218;51.408;7.208;2023-06-10T09:54:50;99757.78;;;26.30;44.24
4410;BME280;2218;51.408;7.208;2023-06-10T09:57:17;99758.78;;;26.29;44.54
4410;BME280;2218;51.408;7.208;2023-06-10T09:59:45;99756.09;;;26.29;44.66
4410;BME280;2218;51.408;7.208;2023-06-10T10:02:15;99754.44;;;26.28;44.19
4410;BME280;2218;51.408;7.208;2023-06-10T10:04:44;99760.59;;;26.28;44.25
4410;BME280;2218;51.408;7.208;2023-06-10T10:07:12;99758.09;;;26.27;44.49
4410;BME280;2218;51.408;7.208;2023-06-10T10:09:41;99760.06;;;26.25;43.84
4410;BME280;2218;51.408;7.208;2023-06-10T10:12:10;99757.41;;;26.25;44.29
4410;BME280;2218;51.408;7.208;2023-06-10T10:14:39;99760.91;;;26.25;44.37
4410;BME280;2218;51.408;7.208;2023-06-10T10:17:10;99753.06;;;26.24;44.05
4410;BME280;2218;51.408;7.208;2023-06-10T10:19:46;99755.72;;;26.24;44.40
4410;BME280;2218;51.408;7.208;2023-06-10T10:22:19;99750.41;;;26.24;44.44
4410;BME280;2218;51.408;7.208;2023-06-10T10:24:50;99746.91;;;26.23;43.93
4410;BME280;2218;51.408;7.208;2023-06-10T10:27:26;99750.56;;;26.22;44.03
4410;BME280;2218;51.408;7.208;2023-06-10T10:29:58;99747.06;;;26.22;43.97
4410;BME280;2218;51.408;7.208;2023-06-10T10:32:34;99745.38;;;26.21;44.32
4410;BME280;2218;51.408;7.208;2023-06-10T10:35:12;99740.19;;;26.19;44.24
4410;BME280;2218;51.408;7.208;2023-06-10T10:37:40;99742.03;;;26.19;43.65
4410;BME280;2218;51.408;7.208;2023-06-10T10:40:10;99737.41;;;26.21;44.36
4410;BME280;2218;51.408;7.208;2023-06-10T10:42:38;99742.84;;;26.19;44.45
4410;BME280;2218;51.408;7.208;2023-06-10T10:45:08;99739.34;;;26.19;43.95
4410;BME280;2218;51.408;7.208;2023-06-10T10:47:36;99732.34;;;26.18;43.77
4410;BME280;2218;51.408;7.208;2023-06-10T10:50:15;99737.69;;;26.18;44.03
4410;BME280;2218;51.408;7.208;2023-06-10T10:52:55;99735.03;;;26.18;44.11
4410;BME280;2218;51.408;7.208;2023-06-10T10:55:23;99735.03;;;26.18;44.14
4410;BME280;2218;51.408;7.208;2023-06-10T10:57:59;99735.84;;;26.18;43.95
4410;BME280;2218;51.408;7.208;2023-06-10T11:00:30;99730.69;;;26.17;44.67
4410;BME280;2218;51.408;7.208;2023-06-10T11:03:03;99736.03;;;26.17;44.33
4410;BME280;2218;51.408;7.208;2023-06-10T11:05:38;99722.69;;;26.17;44.63
4410;BME280;2218;51.408;7.208;2023-06-10T11:08:05;99721.03;;;26.16;44.29
4410;BME280;2218;51.408;7.208;2023-06-10T11:10:35;99726.34;;;26.16;44.07
4410;BME280;2218;51.408;7.208;2023-06-10T11:13:09;99721.03;;;26.16;43.56
4410;BME280;2218;51.408;7.208;2023-06-10T11:15:43;99718.38;;;26.16;43.30
4410;BME280;2218;51.408;7.208;2023-06-10T11:18:23;99718.38;;;26.16;43.85
4410;BME280;2218;51.408;7.208;2023-06-10T11:20:55;99713.03;;;26.16;44.01
4410;BME280;2218;51.408;7.208;2023-06-10T11:23:39;99706.00;;;26.15;44.26
4410;BME280;2218;51.408;7.208;2023-06-10T11:26:17;99706.84;;;26.15;44.07
4410;BME280;2218;51.408;7.208;2023-06-10T11:29:06;99709.50;;;26.15;43.84
4410;BME280;2218;51.408;7.208;2023-06-10T11:31:41;99699.00;;;26.14;44.12
4410;BME280;2218;51.408;7.208;2023-06-10T11:34:09;99703.34;;;26.15;43.97
4410;BME280;2218;51.408;7.208;2023-06-10T11:36:40;99704.34;;;26.14;43.90
4410;BME280;2218;51.408;7.208;2023-06-10T11:39:08;99712.34;;;26.14;43.18
4410;BME280;2218;51.408;7.208;2023-06-10T11:41:38;99699.00;;;26.14;43.72
4410;BME280;2218;51.408;7.208;2023-06-10T11:44:09;99699.84;;;26.14;44.06
4410;BME280;2218;51.408;7.208;2023-06-10T11:46:36;99697.19;;;26.14;43.35
4410;BME280;2218;51.408;7.208;2023-06-10T11:49:04;99695.34;;;26.15;43.85
4410;BME280;2218;51.408;7.208;2023-06-10T11:51:36;99696.34;;;26.14;43.68
4410;BME280;2218;51.408;7.208;2023-06-10T11:54:05;99699.00;;;26.14;43.79
4410;BME280;2218;51.408;7.208;2023-06-10T11:56:32;99699.84;;;26.14;44.13
4410;BME280;2218;51.408;7.208;2023-06-10T11:59:02;99691.72;;;26.16;43.81
4410;BME280;2218;51.408;7.208;2023-06-10T12:01:32;99692.69;;;26.15;43.83
4410;BME280;2218;51.408;7.208;2023-06-10T12:04:03;99691.03;;;26.14;44.01
4410;BME280;2218;51.408;7.208;2023-06-10T12:06:44;99687.53;;;26.13;43.18
4410;BME280;2218;51.408;7.208;2023-06-10T12:09:19;99693.69;;;26.14;43.03
4410;BME280;2218;51.408;7.208;2023-06-10T12:11:50;99688.38;;;26.14;43.91
4410;BME280;2218;51.408;7.208;2023-06-10T12:14:52;99682.19;;;26.13;43.43
4410;BME280;2218;51.408;7.208;2023-06-10T12:17:35;99688.38;;;26.14;43.29
4410;BME280;2218;51.408;7.208;2023-06-10T12:20:05;99692.84;;;26.13;43.50
4410;BME280;2218;51.408;7.208;2023-06-10T12:22:38;99685.69;;;26.14;43.42
4410;BME280;2218;51.408;7.208;2023-06-10T12:25:08;99681.38;;;26.13;42.63
4410;BME280;2218;51.408;7.208;2023-06-10T12:27:37;99679.38;;;26.15;43.03
4410;BME280;2218;51.408;7.208;2023-06-10T12:30:06;99672.38;;;26.14;43.40
4410;BME280;2218;51.408;7.208;2023-06-10T12:32:39;99678.53;;;26.14;43.11
4410;BME280;2218;51.408;7.208;2023-06-10T12:35:09;99675.03;;;26.14;42.68
4410;BME280;2218;51.408;7.208;2023-06-10T12:37:37;99678.53;;;26.14;42.74
4410;BME280;2218;51.408;7.208;2023-06-10T12:40:06;99676.03;;;26.13;43.36
4410;BME280;2218;51.408;7.208;2023-06-10T12:42:36;99669.72;;;26.14;43.12
4410;BME280;2218;51.408;7.208;2023-06-10T12:45:05;99675.88;;;26.14;42.60
4410;BME280;2218;51.408;7.208;2023-06-10T12:47:35;99667.88;;;26.14;43.43
4410;BME280;2218;51.408;7.208;2023-06-10T12:50:05;99673.22;;;26.14;43.01
4410;BME280;2218;51.408;7.208;2023-06-10T12:52:32;99668.72;;;26.15;43.63
4410;BME280;2218;51.408;7.208;2023-06-10T12:55:00;99666.06;;;26.15;42.71
4410;BME280;2218;51.408;7.208;2023-06-10T12:57:27;99662.44;;;26.16;42.60
4410;BME280;2218;51.408;7.208;2023-06-10T12:59:55;99664.22;;;26.15;42.86
4410;BME280;2218;51.408;7.208;2023-06-10T13:02:28;99662.56;;;26.14;43.08
4410;BME280;2218;51.408;7.208;2023-06-10T13:04:55;99658.06;;;26.15;43.18
4410;BME280;2218;51.408;7.208;2023-06-10T13:07:22;99663.41;;;26.15;42.86
4410;BME280;2218;51.408;7.208;2023-06-10T13:09:49;99658.06;;;26.15;42.90
4410;BME280;2218;51.408;7.208;2023-06-10T13:12:17;99659.75;;;26.16;42.78
4410;BME280;2218;51.408;7.208;2023-06-10T13:14:44;99658.06;;;26.15;42.11
4410;BME280;2218;51.408;7.208;2023-06-10T13:17:12;99652.75;;;26.15;42.62
4410;BME280;2218;51.408;7.208;2023-06-10T13:19:38;99655.41;;;26.15;42.90
4410;BME280;2218;51.408;7.208;2023-06-10T13:22:05;99652.75;;;26.15;42.38
4410;BME280;2218;51.408;7.208;2023-06-10T13:24:32;99651.91;;;26.14;42.91
4410;BME280;2218;51.408;7.208;2023-06-10T13:26:59;99643.78;;;26.16;43.08
4410;BME280;2218;51.408;7.208;2023-06-10T13:29:28;99646.44;;;26.16;42.57
4410;BME280;2218;51.408;7.208;2023-06-10T13:31:56;99649.13;;;26.16;42.61